Korsakov, Russia
Current Conditions -  °F | °C
As of 12:00 AM on Friday 24 Oct 2014 (Local Time) from UHSS Reporting Station
Clear Clear  
Wind Chill: 24°   Ceiling: Unl
Heat Index: 30°   Visibility: 6mi
Dew Point: 28°   Wind: 7mph
Humidity: 93%   Direction: 130°SE
Pressure: 29.97"   Gusts: NA
Location:  46.64°N, 142.78°E
Report Text: UHSS 231300Z 13003MPS 9999 NSC M01/M02 Q1015 RMK QFE760/1013
Loading
Personal Weather Stations






























Interactive Weather Map
Tropical Storm Tracking
New forecast layout! Learn more

10-Day Weather Forecast

Advertisements
Track Severe Weather on mobile